sensor_id;sensor_type;location;lat;lon;timestamp;P1;durP1;ratioP1;P2;durP2;ratioP2
80725;SDS011;70113;59.928;10.878;2024-01-11T00:31:04;3.88;;;0.80;;
80725;SDS011;70113;59.928;10.878;2024-01-11T00:33:30;2.55;;;0.82;;
80725;SDS011;70113;59.928;10.878;2024-01-11T00:35:56;3.53;;;0.73;;
80725;SDS011;70113;59.928;10.878;2024-01-11T00:38:21;3.03;;;0.77;;
80725;SDS011;70113;59.928;10.878;2024-01-11T00:40:47;2.55;;;0.77;;
80725;SDS011;70113;59.928;10.878;2024-01-11T00:43:13;1.90;;;0.70;;
80725;SDS011;70113;59.928;10.878;2024-01-11T00:45:38;2.95;;;0.85;;
80725;SDS011;70113;59.928;10.878;2024-01-11T00:48:04;2.80;;;0.47;;
80725;SDS011;70113;59.928;10.878;2024-01-11T00:50:29;2.88;;;0.70;;
80725;SDS011;70113;59.928;10.878;2024-01-11T00:52:56;1.63;;;0.60;;
80725;SDS011;70113;59.928;10.878;2024-01-11T00:55:21;3.13;;;1.00;;
80725;SDS011;70113;59.928;10.878;2024-01-11T00:57:47;5.20;;;1.70;;
80725;SDS011;70113;59.928;10.878;2024-01-11T01:00:12;4.55;;;1.70;;
80725;SDS011;70113;59.928;10.878;2024-01-11T01:02:41;3.50;;;0.95;;
80725;SDS011;70113;59.928;10.878;2024-01-11T01:05:07;4.03;;;1.00;;
80725;SDS011;70113;59.928;10.878;2024-01-11T01:07:33;3.67;;;0.80;;
80725;SDS011;70113;59.928;10.878;2024-01-11T01:09:59;3.13;;;0.47;;
80725;SDS011;70113;59.928;10.878;2024-01-11T01:12:25;4.88;;;0.63;;
80725;SDS011;70113;59.928;10.878;2024-01-11T01:14:51;2.75;;;0.50;;
80725;SDS011;70113;59.928;10.878;2024-01-11T01:17:16;1.90;;;0.55;;
80725;SDS011;70113;59.928;10.878;2024-01-11T01:19:42;3.15;;;0.70;;
80725;SDS011;70113;59.928;10.878;2024-01-11T01:22:08;2.75;;;0.52;;
80725;SDS011;70113;59.928;10.878;2024-01-11T01:24:33;1.67;;;0.88;;
80725;SDS011;70113;59.928;10.878;2024-01-11T01:26:59;1.70;;;0.68;;
80725;SDS011;70113;59.928;10.878;2024-01-11T01:29:25;2.35;;;0.63;;
80725;SDS011;70113;59.928;10.878;2024-01-11T01:31:52;4.57;;;1.13;;
80725;SDS011;70113;59.928;10.878;2024-01-11T01:34:17;6.72;;;1.83;;
80725;SDS011;70113;59.928;10.878;2024-01-11T01:36:43;5.47;;;2.58;;
80725;SDS011;70113;59.928;10.878;2024-01-11T01:39:08;7.50;;;3.42;;
80725;SDS011;70113;59.928;10.878;2024-01-11T01:41:34;8.27;;;2.97;;
80725;SDS011;70113;59.928;10.878;2024-01-11T01:44:00;5.25;;;1.70;;
80725;SDS011;70113;59.928;10.878;2024-01-11T01:46:26;5.70;;;1.90;;
80725;SDS011;70113;59.928;10.878;2024-01-11T01:48:52;14.65;;;7.95;;
80725;SDS011;70113;59.928;10.878;2024-01-11T01:51:19;14.80;;;7.65;;
80725;SDS011;70113;59.928;10.878;2024-01-11T01:53:44;12.43;;;6.55;;
80725;SDS011;70113;59.928;10.878;2024-01-11T01:56:11;13.50;;;6.75;;
80725;SDS011;70113;59.928;10.878;2024-01-11T01:58:37;9.63;;;4.80;;
80725;SDS011;70113;59.928;10.878;2024-01-11T02:01:03;6.60;;;3.30;;
80725;SDS011;70113;59.928;10.878;2024-01-11T02:03:28;7.32;;;3.03;;
80725;SDS011;70113;59.928;10.878;2024-01-11T02:05:55;5.82;;;2.10;;
80725;SDS011;70113;59.928;10.878;2024-01-11T02:08:21;6.80;;;1.55;;
80725;SDS011;70113;59.928;10.878;2024-01-11T02:10:48;5.70;;;1.52;;
80725;SDS011;70113;59.928;10.878;2024-01-11T02:13:14;2.47;;;1.00;;
80725;SDS011;70113;59.928;10.878;2024-01-11T02:15:40;2.90;;;1.00;;
80725;SDS011;70113;59.928;10.878;2024-01-11T02:18:06;3.40;;;0.80;;
80725;SDS011;70113;59.928;10.878;2024-01-11T02:20:32;2.92;;;0.65;;
80725;SDS011;70113;59.928;10.878;2024-01-11T02:23:01;3.22;;;0.70;;
80725;SDS011;70113;59.928;10.878;2024-01-11T02:25:29;1.90;;;0.73;;
80725;SDS011;70113;59.928;10.878;2024-01-11T02:27:54;1.35;;;0.60;;
80725;SDS011;70113;59.928;10.878;2024-01-11T02:45:28;3.88;;;1.80;;
80725;SDS011;70113;59.928;10.878;2024-01-11T02:47:54;3.15;;;1.30;;
80725;SDS011;70113;59.928;10.878;2024-01-11T02:50:21;4.72;;;1.30;;
80725;SDS011;70113;59.928;10.878;2024-01-11T02:52:47;5.20;;;1.35;;
80725;SDS011;70113;59.928;10.878;2024-01-11T02:55:12;3.45;;;1.35;;
80725;SDS011;70113;59.928;10.878;2024-01-11T02:57:38;5.03;;;2.08;;
80725;SDS011;70113;59.928;10.878;2024-01-11T03:00:04;5.18;;;1.70;;
80725;SDS011;70113;59.928;10.878;2024-01-11T03:02:31;4.82;;;2.00;;
80725;SDS011;70113;59.928;10.878;2024-01-11T03:04:56;3.85;;;1.38;;
80725;SDS011;70113;59.928;10.878;2024-01-11T03:07:22;3.97;;;1.30;;
80725;SDS011;70113;59.928;10.878;2024-01-11T03:09:48;5.90;;;1.63;;
80725;SDS011;70113;59.928;10.878;2024-01-11T03:12:14;2.95;;;1.25;;
80725;SDS011;70113;59.928;10.878;2024-01-11T03:14:39;4.75;;;1.15;;
80725;SDS011;70113;59.928;10.878;2024-01-11T03:17:05;4.10;;;1.40;;
80725;SDS011;70113;59.928;10.878;2024-01-11T03:19:30;3.03;;;1.00;;
80725;SDS011;70113;59.928;10.878;2024-01-11T03:21:56;3.38;;;1.00;;
80725;SDS011;70113;59.928;10.878;2024-01-11T03:24:22;4.68;;;0.82;;
80725;SDS011;70113;59.928;10.878;2024-01-11T03:26:48;4.20;;;1.00;;
80725;SDS011;70113;59.928;10.878;2024-01-11T03:29:14;2.03;;;0.82;;
80725;SDS011;70113;59.928;10.878;2024-01-11T03:31:39;2.45;;;0.70;;
80725;SDS011;70113;59.928;10.878;2024-01-11T03:34:07;3.15;;;0.82;;
80725;SDS011;70113;59.928;10.878;2024-01-11T03:36:33;3.47;;;0.70;;
80725;SDS011;70113;59.928;10.878;2024-01-11T03:38:59;2.15;;;0.60;;
80725;SDS011;70113;59.928;10.878;2024-01-11T03:41:24;1.98;;;0.50;;
80725;SDS011;70113;59.928;10.878;2024-01-11T03:43:50;2.55;;;1.00;;
80725;SDS011;70113;59.928;10.878;2024-01-11T03:46:16;1.80;;;0.70;;
80725;SDS011;70113;59.928;10.878;2024-01-11T03:48:41;0.75;;;0.40;;
80725;SDS011;70113;59.928;10.878;2024-01-11T03:51:07;2.05;;;0.70;;
80725;SDS011;70113;59.928;10.878;2024-01-11T03:53:36;2.00;;;0.57;;
80725;SDS011;70113;59.928;10.878;2024-01-11T03:56:05;2.97;;;0.50;;
80725;SDS011;70113;59.928;10.878;2024-01-11T03:58:30;0.40;;;0.30;;
80725;SDS011;70113;59.928;10.878;2024-01-11T04:00:56;1.08;;;0.40;;
80725;SDS011;70113;59.928;10.878;2024-01-11T04:03:21;1.02;;;0.50;;
80725;SDS011;70113;59.928;10.878;2024-01-11T04:05:47;1.48;;;0.40;;
80725;SDS011;70113;59.928;10.878;2024-01-11T04:08:13;2.65;;;0.68;;
80725;SDS011;70113;59.928;10.878;2024-01-11T04:10:39;2.75;;;0.65;;
80725;SDS011;70113;59.928;10.878;2024-01-11T04:13:06;3.15;;;0.65;;
80725;SDS011;70113;59.928;10.878;2024-01-11T04:15:32;0.88;;;0.40;;
80725;SDS011;70113;59.928;10.878;2024-01-11T04:17:58;1.13;;;0.45;;
80725;SDS011;70113;59.928;10.878;2024-01-11T04:20:23;1.40;;;0.70;;
80725;SDS011;70113;59.928;10.878;2024-01-11T04:22:49;3.08;;;0.60;;
80725;SDS011;70113;59.928;10.878;2024-01-11T04:25:15;2.42;;;0.55;;
80725;SDS011;70113;59.928;10.878;2024-01-11T04:27:41;3.15;;;0.70;;
80725;SDS011;70113;59.928;10.878;2024-01-11T04:30:06;3.10;;;0.55;;
80725;SDS011;70113;59.928;10.878;2024-01-11T04:32:32;1.77;;;0.50;;
80725;SDS011;70113;59.928;10.878;2024-01-11T04:34:58;2.22;;;0.40;;
80725;SDS011;70113;59.928;10.878;2024-01-11T04:37:23;1.20;;;0.38;;
80725;SDS011;70113;59.928;10.878;2024-01-11T04:39:49;1.52;;;0.30;;
80725;SDS011;70113;59.928;10.878;2024-01-11T04:42:15;1.02;;;0.30;;
80725;SDS011;70113;59.928;10.878;2024-01-11T04:44:40;2.00;;;0.43;;
80725;SDS011;70113;59.928;10.878;2024-01-11T04:47:06;1.40;;;0.20;;
80725;SDS011;70113;59.928;10.878;2024-01-11T04:49:33;1.88;;;0.30;;
80725;SDS011;70113;59.928;10.878;2024-01-11T04:51:59;0.17;;;0.17;;
80725;SDS011;70113;59.928;10.878;2024-01-11T04:54:25;1.42;;;0.50;;
80725;SDS011;70113;59.928;10.878;2024-01-11T04:56:51;0.75;;;0.40;;
80725;SDS011;70113;59.928;10.878;2024-01-11T04:59:16;1.75;;;0.40;;
80725;SDS011;70113;59.928;10.878;2024-01-11T05:01:42;1.60;;;0.50;;
80725;SDS011;70113;59.928;10.878;2024-01-11T05:04:08;0.68;;;0.40;;
80725;SDS011;70113;59.928;10.878;2024-01-11T05:06:34;1.05;;;0.50;;
80725;SDS011;70113;59.928;10.878;2024-01-11T05:08:59;0.65;;;0.32;;
80725;SDS011;70113;59.928;10.878;2024-01-11T05:11:25;2.05;;;0.50;;
80725;SDS011;70113;59.928;10.878;2024-01-11T05:13:52;1.95;;;0.47;;
80725;SDS011;70113;59.928;10.878;2024-01-11T05:16:21;1.38;;;0.35;;
80725;SDS011;70113;59.928;10.878;2024-01-11T05:18:48;1.23;;;0.35;;
80725;SDS011;70113;59.928;10.878;2024-01-11T05:21:14;1.55;;;0.32;;
80725;SDS011;70113;59.928;10.878;2024-01-11T05:23:40;0.15;;;0.15;;
80725;SDS011;70113;59.928;10.878;2024-01-11T05:26:05;0.77;;;0.22;;
80725;SDS011;70113;59.928;10.878;2024-01-11T05:28:31;1.75;;;0.30;;
80725;SDS011;70113;59.928;10.878;2024-01-11T05:30:57;0.73;;;0.25;;
80725;SDS011;70113;59.928;10.878;2024-01-11T05:33:22;1.08;;;0.30;;
80725;SDS011;70113;59.928;10.878;2024-01-11T05:35:48;2.40;;;0.40;;
80725;SDS011;70113;59.928;10.878;2024-01-11T05:38:14;0.55;;;0.22;;
80725;SDS011;70113;59.928;10.878;2024-01-11T05:40:39;1.88;;;0.40;;
80725;SDS011;70113;59.928;10.878;2024-01-11T05:43:05;1.13;;;0.30;;
80725;SDS011;70113;59.928;10.878;2024-01-11T05:45:30;0.30;;;0.20;;
80725;SDS011;70113;59.928;10.878;2024-01-11T05:47:56;0.85;;;0.32;;
80725;SDS011;70113;59.928;10.878;2024-01-11T05:50:21;0.60;;;0.30;;
80725;SDS011;70113;59.928;10.878;2024-01-11T05:52:47;0.85;;;0.30;;
80725;SDS011;70113;59.928;10.878;2024-01-11T05:55:13;1.48;;;0.45;;
80725;SDS011;70113;59.928;10.878;2024-01-11T05:57:38;0.77;;;0.38;;
80725;SDS011;70113;59.928;10.878;2024-01-11T06:00:04;1.10;;;0.40;;
80725;SDS011;70113;59.928;10.878;2024-01-11T06:02:30;0.52;;;0.22;;
80725;SDS011;70113;59.928;10.878;2024-01-11T06:04:56;0.75;;;0.20;;
80725;SDS011;70113;59.928;10.878;2024-01-11T06:07:22;1.10;;;0.30;;
80725;SDS011;70113;59.928;10.878;2024-01-11T06:09:48;1.77;;;0.20;;
80725;SDS011;70113;59.928;10.878;2024-01-11T06:12:14;1.85;;;0.35;;
80725;SDS011;70113;59.928;10.878;2024-01-11T06:14:40;1.33;;;0.43;;
80725;SDS011;70113;59.928;10.878;2024-01-11T06:17:06;1.25;;;0.20;;
80725;SDS011;70113;59.928;10.878;2024-01-11T06:19:31;0.70;;;0.20;;
80725;SDS011;70113;59.928;10.878;2024-01-11T06:21:58;0.55;;;0.30;;
80725;SDS011;70113;59.928;10.878;2024-01-11T06:24:23;0.45;;;0.30;;
80725;SDS011;70113;59.928;10.878;2024-01-11T06:26:49;0.98;;;0.30;;
80725;SDS011;70113;59.928;10.878;2024-01-11T06:29:14;1.55;;;0.30;;
80725;SDS011;70113;59.928;10.878;2024-01-11T06:31:40;0.73;;;0.30;;
80725;SDS011;70113;59.928;10.878;2024-01-11T06:34:06;3.05;;;1.13;;
80725;SDS011;70113;59.928;10.878;2024-01-11T06:36:32;3.03;;;0.95;;
80725;SDS011;70113;59.928;10.878;2024-01-11T06:38:57;0.90;;;0.40;;
80725;SDS011;70113;59.928;10.878;2024-01-11T06:41:23;0.20;;;0.20;;
80725;SDS011;70113;59.928;10.878;2024-01-11T06:43:49;1.88;;;0.30;;
80725;SDS011;70113;59.928;10.878;2024-01-11T06:46:19;1.60;;;0.30;;
80725;SDS011;70113;59.928;10.878;2024-01-11T06:48:45;0.43;;;0.20;;
80725;SDS011;70113;59.928;10.878;2024-01-11T06:51:14;0.50;;;0.20;;
80725;SDS011;70113;59.928;10.878;2024-01-11T06:53:39;1.00;;;0.30;;
80725;SDS011;70113;59.928;10.878;2024-01-11T06:56:13;0.73;;;0.30;;
80725;SDS011;70113;59.928;10.878;2024-01-11T06:58:39;2.05;;;0.30;;
80725;SDS011;70113;59.928;10.878;2024-01-11T07:01:04;0.75;;;0.28;;
80725;SDS011;70113;59.928;10.878;2024-01-11T07:03:30;1.52;;;0.15;;
80725;SDS011;70113;59.928;10.878;2024-01-11T07:05:56;0.40;;;0.20;;
80725;SDS011;70113;59.928;10.878;2024-01-11T07:08:22;1.83;;;0.50;;
80725;SDS011;70113;59.928;10.878;2024-01-11T07:10:47;1.95;;;0.30;;
80725;SDS011;70113;59.928;10.878;2024-01-11T07:13:13;1.05;;;0.28;;
80725;SDS011;70113;59.928;10.878;2024-01-11T07:15:42;0.15;;;0.10;;
80725;SDS011;70113;59.928;10.878;2024-01-11T07:18:08;0.63;;;0.25;;
80725;SDS011;70113;59.928;10.878;2024-01-11T07:20:34;0.40;;;0.20;;
80725;SDS011;70113;59.928;10.878;2024-01-11T07:22:59;1.23;;;0.17;;
80725;SDS011;70113;59.928;10.878;2024-01-11T07:25:25;0.45;;;0.10;;
80725;SDS011;70113;59.928;10.878;2024-01-11T07:27:51;1.35;;;0.20;;
80725;SDS011;70113;59.928;10.878;2024-01-11T07:30:17;1.00;;;0.20;;
80725;SDS011;70113;59.928;10.878;2024-01-11T07:32:44;0.43;;;0.20;;
80725;SDS011;70113;59.928;10.878;2024-01-11T07:35:09;0.22;;;0.20;;
80725;SDS011;70113;59.928;10.878;2024-01-11T07:37:36;0.30;;;0.20;;
80725;SDS011;70113;59.928;10.878;2024-01-11T07:40:02;0.90;;;0.20;;
80725;SDS011;70113;59.928;10.878;2024-01-11T07:42:28;0.30;;;0.20;;
80725;SDS011;70113;59.928;10.878;2024-01-11T07:44:53;0.98;;;0.28;;
80725;SDS011;70113;59.928;10.878;2024-01-11T07:47:19;0.93;;;0.30;;
80725;SDS011;70113;59.928;10.878;2024-01-11T07:49:45;2.05;;;0.32;;
80725;SDS011;70113;59.928;10.878;2024-01-11T07:52:10;1.25;;;0.30;;
80725;SDS011;70113;59.928;10.878;2024-01-11T07:54:36;1.02;;;0.38;;
80725;SDS011;70113;59.928;10.878;2024-01-11T07:57:02;1.08;;;0.52;;
80725;SDS011;70113;59.928;10.878;2024-01-11T07:59:34;1.50;;;0.65;;
80725;SDS011;70113;59.928;10.878;2024-01-11T08:02:01;1.15;;;0.20;;
80725;SDS011;70113;59.928;10.878;2024-01-11T08:04:27;1.38;;;0.20;;
80725;SDS011;70113;59.928;10.878;2024-01-11T08:06:52;1.00;;;0.30;;
80725;SDS011;70113;59.928;10.878;2024-01-11T08:09:18;0.17;;;0.15;;
80725;SDS011;70113;59.928;10.878;2024-01-11T08:23:25;2.92;;;0.80;;
80725;SDS011;70113;59.928;10.878;2024-01-11T08:25:52;2.15;;;0.57;;
80725;SDS011;70113;59.928;10.878;2024-01-11T08:28:20;2.35;;;0.93;;
80725;SDS011;70113;59.928;10.878;2024-01-11T08:30:46;2.13;;;0.40;;
80725;SDS011;70113;59.928;10.878;2024-01-11T08:33:12;1.42;;;0.40;;
80725;SDS011;70113;59.928;10.878;2024-01-11T08:35:39;1.02;;;0.45;;
80725;SDS011;70113;59.928;10.878;2024-01-11T08:38:06;0.77;;;0.38;;
80725;SDS011;70113;59.928;10.878;2024-01-11T08:40:32;0.65;;;0.30;;
80725;SDS011;70113;59.928;10.878;2024-01-11T08:42:59;1.67;;;0.22;;
80725;SDS011;70113;59.928;10.878;2024-01-11T08:45:25;0.75;;;0.30;;
80725;SDS011;70113;59.928;10.878;2024-01-11T08:47:50;1.30;;;0.30;;
80725;SDS011;70113;59.928;10.878;2024-01-11T08:50:17;1.25;;;0.30;;
80725;SDS011;70113;59.928;10.878;2024-01-11T08:52:43;0.30;;;0.30;;
80725;SDS011;70113;59.928;10.878;2024-01-11T08:55:09;0.95;;;0.30;;
80725;SDS011;70113;59.928;10.878;2024-01-11T08:57:35;0.95;;;0.40;;
80725;SDS011;70113;59.928;10.878;2024-01-11T09:00:01;0.40;;;0.30;;
80725;SDS011;70113;59.928;10.878;2024-01-11T09:02:29;0.70;;;0.20;;
80725;SDS011;70113;59.928;10.878;2024-01-11T09:04:55;0.45;;;0.22;;
80725;SDS011;70113;59.928;10.878;2024-01-11T09:07:21;2.00;;;0.38;;
80725;SDS011;70113;59.928;10.878;2024-01-11T09:09:47;0.98;;;0.20;;
80725;SDS011;70113;59.928;10.878;2024-01-11T09:12:13;0.85;;;0.30;;
80725;SDS011;70113;59.928;10.878;2024-01-11T09:14:38;3.13;;;1.40;;
80725;SDS011;70113;59.928;10.878;2024-01-11T09:17:05;8.60;;;3.72;;
80725;SDS011;70113;59.928;10.878;2024-01-11T09:19:32;4.22;;;0.80;;
80725;SDS011;70113;59.928;10.878;2024-01-11T09:21:59;1.45;;;0.35;;
80725;SDS011;70113;59.928;10.878;2024-01-11T09:24:25;0.93;;;0.30;;
80725;SDS011;70113;59.928;10.878;2024-01-11T09:26:51;2.38;;;0.50;;
80725;SDS011;70113;59.928;10.878;2024-01-11T09:29:17;1.60;;;0.40;;
80725;SDS011;70113;59.928;10.878;2024-01-11T09:31:43;1.67;;;0.20;;
80725;SDS011;70113;59.928;10.878;2024-01-11T09:34:09;1.73;;;0.30;;
80725;SDS011;70113;59.928;10.878;2024-01-11T09:36:36;2.85;;;0.30;;
80725;SDS011;70113;59.928;10.878;2024-01-11T09:39:04;0.32;;;0.22;;
80725;SDS011;70113;59.928;10.878;2024-01-11T09:41:31;0.98;;;0.30;;
80725;SDS011;70113;59.928;10.878;2024-01-11T09:43:58;0.45;;;0.20;;
80725;SDS011;70113;59.928;10.878;2024-01-11T09:46:26;1.00;;;0.25;;
80725;SDS011;70113;59.928;10.878;2024-01-11T09:48:53;1.25;;;0.20;;
80725;SDS011;70113;59.928;10.878;2024-01-11T09:51:21;0.38;;;0.20;;
80725;SDS011;70113;59.928;10.878;2024-01-11T09:53:47;1.45;;;0.30;;
80725;SDS011;70113;59.928;10.878;2024-01-11T09:56:17;0.10;;;0.10;;
80725;SDS011;70113;59.928;10.878;2024-01-11T09:58:46;0.20;;;0.20;;
80725;SDS011;70113;59.928;10.878;2024-01-11T10:01:16;1.20;;;0.22;;
80725;SDS011;70113;59.928;10.878;2024-01-11T10:03:42;1.40;;;0.52;;
80725;SDS011;70113;59.928;10.878;2024-01-11T10:06:09;0.88;;;0.30;;
80725;SDS011;70113;59.928;10.878;2024-01-11T10:08:35;0.50;;;0.20;;
80725;SDS011;70113;59.928;10.878;2024-01-11T10:11:02;1.50;;;0.30;;
80725;SDS011;70113;59.928;10.878;2024-01-11T10:13:28;0.40;;;0.17;;
80725;SDS011;70113;59.928;10.878;2024-01-11T10:16:09;0.20;;;0.20;;
80725;SDS011;70113;59.928;10.878;2024-01-11T10:21:05;0.73;;;0.30;;
80725;SDS011;70113;59.928;10.878;2024-01-11T10:23:34;1.42;;;0.30;;
80725;SDS011;70113;59.928;10.878;2024-01-11T10:26:00;0.70;;;0.30;;
80725;SDS011;70113;59.928;10.878;2024-01-11T10:28:26;2.58;;;0.40;;
80725;SDS011;70113;59.928;10.878;2024-01-11T10:30:52;2.38;;;0.20;;
80725;SDS011;70113;59.928;10.878;2024-01-11T10:33:20;0.47;;;0.25;;
80725;SDS011;70113;59.928;10.878;2024-01-11T10:35:47;1.83;;;0.50;;
80725;SDS011;70113;59.928;10.878;2024-01-11T10:38:16;0.98;;;0.40;;
80725;SDS011;70113;59.928;10.878;2024-01-11T10:40:43;1.63;;;0.30;;
80725;SDS011;70113;59.928;10.878;2024-01-11T10:43:10;1.55;;;0.20;;
80725;SDS011;70113;59.928;10.878;2024-01-11T10:45:41;1.05;;;0.35;;
80725;SDS011;70113;59.928;10.878;2024-01-11T10:48:14;0.15;;;0.15;;
80725;SDS011;70113;59.928;10.878;2024-01-11T10:50:42;0.65;;;0.20;;
80725;SDS011;70113;59.928;10.878;2024-01-11T10:53:14;0.43;;;0.25;;
80725;SDS011;70113;59.928;10.878;2024-01-11T10:55:54;0.47;;;0.20;;
80725;SDS011;70113;59.928;10.878;2024-01-11T10:58:21;0.73;;;0.20;;
80725;SDS011;70113;59.928;10.878;2024-01-11T11:00:49;0.70;;;0.30;;
80725;SDS011;70113;59.928;10.878;2024-01-11T11:03:17;1.55;;;0.40;;
80725;SDS011;70113;59.928;10.878;2024-01-11T11:05:45;0.70;;;0.32;;
80725;SDS011;70113;59.928;10.878;2024-01-11T11:08:15;0.95;;;0.20;;
80725;SDS011;70113;59.928;10.878;2024-01-11T11:10:43;0.85;;;0.30;;
80725;SDS011;70113;59.928;10.878;2024-01-11T11:13:10;2.28;;;0.60;;
80725;SDS011;70113;59.928;10.878;2024-01-11T11:15:40;1.55;;;0.38;;
80725;SDS011;70113;59.928;10.878;2024-01-11T11:18:12;1.50;;;0.40;;
80725;SDS011;70113;59.928;10.878;2024-01-11T11:20:42;1.05;;;0.50;;
80725;SDS011;70113;59.928;10.878;2024-01-11T11:23:08;3.63;;;0.60;;
80725;SDS011;70113;59.928;10.878;2024-01-11T11:25:36;0.77;;;0.22;;
80725;SDS011;70113;59.928;10.878;2024-01-11T11:28:04;1.45;;;0.38;;
80725;SDS011;70113;59.928;10.878;2024-01-11T11:30:30;0.43;;;0.20;;
80725;SDS011;70113;59.928;10.878;2024-01-11T11:32:56;1.00;;;0.20;;
80725;SDS011;70113;59.928;10.878;2024-01-11T11:35:23;1.27;;;0.30;;
80725;SDS011;70113;59.928;10.878;2024-01-11T11:37:53;0.38;;;0.10;;
80725;SDS011;70113;59.928;10.878;2024-01-11T11:40:33;1.25;;;0.20;;
80725;SDS011;70113;59.928;10.878;2024-01-11T11:43:04;0.80;;;0.20;;
80725;SDS011;70113;59.928;10.878;2024-01-11T11:45:31;0.77;;;0.20;;
80725;SDS011;70113;59.928;10.878;2024-01-11T11:47:57;1.08;;;0.30;;
80725;SDS011;70113;59.928;10.878;2024-01-11T11:50:23;0.63;;;0.30;;
80725;SDS011;70113;59.928;10.878;2024-01-11T11:52:56;0.30;;;0.20;;
80725;SDS011;70113;59.928;10.878;2024-01-11T11:55:25;0.40;;;0.30;;
80725;SDS011;70113;59.928;10.878;2024-01-11T11:57:51;0.57;;;0.20;;
80725;SDS011;70113;59.928;10.878;2024-01-11T12:00:20;1.08;;;0.20;;
80725;SDS011;70113;59.928;10.878;2024-01-11T12:02:47;0.32;;;0.20;;
80725;SDS011;70113;59.928;10.878;2024-01-11T12:05:13;0.93;;;0.30;;
80725;SDS011;70113;59.928;10.878;2024-01-11T12:07:39;2.40;;;0.30;;
80725;SDS011;70113;59.928;10.878;2024-01-11T12:10:06;1.40;;;0.30;;
80725;SDS011;70113;59.928;10.878;2024-01-11T12:12:33;1.42;;;0.25;;
80725;SDS011;70113;59.928;10.878;2024-01-11T12:15:00;2.38;;;0.50;;
80725;SDS011;70113;59.928;10.878;2024-01-11T12:17:27;0.47;;;0.20;;
80725;SDS011;70113;59.928;10.878;2024-01-11T12:19:53;0.60;;;0.22;;
80725;SDS011;70113;59.928;10.878;2024-01-11T12:22:19;1.15;;;0.20;;
80725;SDS011;70113;59.928;10.878;2024-01-11T12:24:45;1.77;;;0.30;;
80725;SDS011;70113;59.928;10.878;2024-01-11T12:27:12;1.33;;;0.30;;
80725;SDS011;70113;59.928;10.878;2024-01-11T12:29:38;0.95;;;0.25;;
80725;SDS011;70113;59.928;10.878;2024-01-11T12:32:05;0.10;;;0.10;;
80725;SDS011;70113;59.928;10.878;2024-01-11T12:34:31;0.25;;;0.10;;
80725;SDS011;70113;59.928;10.878;2024-01-11T12:36:58;0.77;;;0.20;;
80725;SDS011;70113;59.928;10.878;2024-01-11T12:39:27;0.73;;;0.28;;
80725;SDS011;70113;59.928;10.878;2024-01-11T12:41:53;0.60;;;0.20;;
80725;SDS011;70113;59.928;10.878;2024-01-11T12:44:22;1.38;;;0.25;;
80725;SDS011;70113;59.928;10.878;2024-01-11T12:46:49;1.02;;;0.30;;
80725;SDS011;70113;59.928;10.878;2024-01-11T12:49:18;0.98;;;0.20;;
80725;SDS011;70113;59.928;10.878;2024-01-11T12:51:43;1.98;;;0.35;;
80725;SDS011;70113;59.928;10.878;2024-01-11T12:54:12;1.45;;;0.40;;
80725;SDS011;70113;59.928;10.878;2024-01-11T12:56:44;2.35;;;0.32;;
80725;SDS011;70113;59.928;10.878;2024-01-11T12:59:11;1.02;;;0.40;;
80725;SDS011;70113;59.928;10.878;2024-01-11T13:01:40;0.20;;;0.10;;
80725;SDS011;70113;59.928;10.878;2024-01-11T13:04:08;1.52;;;0.30;;
80725;SDS011;70113;59.928;10.878;2024-01-11T13:06:34;0.45;;;0.20;;
80725;SDS011;70113;59.928;10.878;2024-01-11T13:09:01;0.40;;;0.20;;
80725;SDS011;70113;59.928;10.878;2024-01-11T13:11:28;1.35;;;0.38;;
80725;SDS011;70113;59.928;10.878;2024-01-11T13:13:54;0.38;;;0.20;;
80725;SDS011;70113;59.928;10.878;2024-01-11T13:16:19;0.35;;;0.20;;
80725;SDS011;70113;59.928;10.878;2024-01-11T13:18:46;0.88;;;0.20;;
80725;SDS011;70113;59.928;10.878;2024-01-11T13:21:12;0.57;;;0.20;;
80725;SDS011;70113;59.928;10.878;2024-01-11T13:23:38;0.63;;;0.25;;
80725;SDS011;70113;59.928;10.878;2024-01-11T13:26:05;0.55;;;0.20;;
80725;SDS011;70113;59.928;10.878;2024-01-11T13:28:33;1.45;;;0.52;;
80725;SDS011;70113;59.928;10.878;2024-01-11T13:30:59;1.23;;;0.30;;
80725;SDS011;70113;59.928;10.878;2024-01-11T13:33:25;0.25;;;0.20;;
80725;SDS011;70113;59.928;10.878;2024-01-11T13:35:51;0.75;;;0.22;;
80725;SDS011;70113;59.928;10.878;2024-01-11T13:38:17;0.40;;;0.30;;
80725;SDS011;70113;59.928;10.878;2024-01-11T13:40:43;0.85;;;0.30;;
80725;SDS011;70113;59.928;10.878;2024-01-11T13:43:10;0.45;;;0.43;;
80725;SDS011;70113;59.928;10.878;2024-01-11T13:45:35;0.47;;;0.22;;
80725;SDS011;70113;59.928;10.878;2024-01-11T13:48:02;1.23;;;0.38;;
80725;SDS011;70113;59.928;10.878;2024-01-11T13:50:31;0.10;;;0.10;;
80725;SDS011;70113;59.928;10.878;2024-01-11T13:53:00;0.77;;;0.25;;
80725;SDS011;70113;59.928;10.878;2024-01-11T13:55:27;1.10;;;0.40;;
80725;SDS011;70113;59.928;10.878;2024-01-11T13:57:54;2.28;;;0.63;;
80725;SDS011;70113;59.928;10.878;2024-01-11T14:00:20;1.05;;;0.30;;
80725;SDS011;70113;59.928;10.878;2024-01-11T14:02:46;0.55;;;0.20;;
80725;SDS011;70113;59.928;10.878;2024-01-11T14:05:13;0.50;;;0.20;;
80725;SDS011;70113;59.928;10.878;2024-01-11T14:07:41;0.77;;;0.20;;
80725;SDS011;70113;59.928;10.878;2024-01-11T14:10:07;0.25;;;0.20;;
80725;SDS011;70113;59.928;10.878;2024-01-11T14:12:35;0.68;;;0.20;;
80725;SDS011;70113;59.928;10.878;2024-01-11T14:15:02;0.63;;;0.22;;
80725;SDS011;70113;59.928;10.878;2024-01-11T14:17:31;0.68;;;0.20;;
80725;SDS011;70113;59.928;10.878;2024-01-11T14:19:59;0.65;;;0.20;;
80725;SDS011;70113;59.928;10.878;2024-01-11T14:22:25;0.50;;;0.13;;
80725;SDS011;70113;59.928;10.878;2024-01-11T14:24:51;1.42;;;0.20;;
80725;SDS011;70113;59.928;10.878;2024-01-11T14:27:19;0.82;;;0.30;;
80725;SDS011;70113;59.928;10.878;2024-01-11T14:29:46;2.17;;;0.40;;
80725;SDS011;70113;59.928;10.878;2024-01-11T14:32:13;0.80;;;0.30;;
80725;SDS011;70113;59.928;10.878;2024-01-11T14:34:44;1.95;;;0.52;;
80725;SDS011;70113;59.928;10.878;2024-01-11T14:37:10;0.47;;;0.30;;
80725;SDS011;70113;59.928;10.878;2024-01-11T14:39:37;0.88;;;0.40;;
80725;SDS011;70113;59.928;10.878;2024-01-11T14:42:03;0.88;;;0.30;;
80725;SDS011;70113;59.928;10.878;2024-01-11T14:44:29;0.95;;;0.20;;
80725;SDS011;70113;59.928;10.878;2024-01-11T14:46:55;0.63;;;0.30;;
80725;SDS011;70113;59.928;10.878;2024-01-11T14:49:22;0.75;;;0.30;;
80725;SDS011;70113;59.928;10.878;2024-01-11T14:51:49;1.65;;;0.30;;
80725;SDS011;70113;59.928;10.878;2024-01-11T14:54:14;0.50;;;0.30;;
80725;SDS011;70113;59.928;10.878;2024-01-11T14:56:40;0.98;;;0.20;;
80725;SDS011;70113;59.928;10.878;2024-01-11T14:59:06;0.85;;;0.30;;
80725;SDS011;70113;59.928;10.878;2024-01-11T15:01:32;0.65;;;0.30;;
80725;SDS011;70113;59.928;10.878;2024-01-11T15:03:58;0.73;;;0.35;;
80725;SDS011;70113;59.928;10.878;2024-01-11T15:06:23;2.58;;;0.40;;
80725;SDS011;70113;59.928;10.878;2024-01-11T15:08:49;1.45;;;0.30;;
80725;SDS011;70113;59.928;10.878;2024-01-11T15:11:15;1.10;;;0.20;;
80725;SDS011;70113;59.928;10.878;2024-01-11T15:13:41;1.13;;;0.20;;
80725;SDS011;70113;59.928;10.878;2024-01-11T15:16:07;3.47;;;0.40;;
80725;SDS011;70113;59.928;10.878;2024-01-11T15:18:33;0.88;;;0.32;;
80725;SDS011;70113;59.928;10.878;2024-01-11T15:20:59;1.05;;;0.30;;
80725;SDS011;70113;59.928;10.878;2024-01-11T15:23:24;0.85;;;0.40;;
80725;SDS011;70113;59.928;10.878;2024-01-11T15:25:50;0.50;;;0.30;;
80725;SDS011;70113;59.928;10.878;2024-01-11T15:28:17;1.42;;;0.38;;